sensor_id;sensor_type;location;lat;lon;timestamp;temperature;humidity
19868;DHT22;10096;51.112;6.776;2024-02-16T00:00:48;13.50;99.90
19868;DHT22;10096;51.112;6.776;2024-02-16T00:03:19;13.50;99.90
19868;DHT22;10096;51.112;6.776;2024-02-16T00:05:47;13.60;99.90
19868;DHT22;10096;51.112;6.776;2024-02-16T00:08:28;13.50;99.90
19868;DHT22;10096;51.112;6.776;2024-02-16T00:10:55;13.50;99.90
19868;DHT22;10096;51.112;6.776;2024-02-16T00:13:22;13.50;99.90
19868;DHT22;10096;51.112;6.776;2024-02-16T00:15:49;13.70;99.90
19868;DHT22;10096;51.112;6.776;2024-02-16T00:18:16;13.60;99.90
19868;DHT22;10096;51.112;6.776;2024-02-16T00:20:43;13.70;99.90
19868;DHT22;10096;51.112;6.776;2024-02-16T00:23:11;13.80;99.90
19868;DHT22;10096;51.112;6.776;2024-02-16T00:25:42;13.70;99.90
19868;DHT22;10096;51.112;6.776;2024-02-16T00:28:09;13.60;99.90
19868;DHT22;10096;51.112;6.776;2024-02-16T00:30:35;13.80;99.90
19868;DHT22;10096;51.112;6.776;2024-02-16T00:33:03;13.70;99.90
19868;DHT22;10096;51.112;6.776;2024-02-16T00:35:32;13.70;99.90
19868;DHT22;10096;51.112;6.776;2024-02-16T00:38:02;13.70;99.90
19868;DHT22;10096;51.112;6.776;2024-02-16T00:40:29;13.70;99.90
19868;DHT22;10096;51.112;6.776;2024-02-16T00:42:57;13.70;99.90
19868;DHT22;10096;51.112;6.776;2024-02-16T00:45:24;13.70;99.90
19868;DHT22;10096;51.112;6.776;2024-02-16T00:47:51;13.70;99.90
19868;DHT22;10096;51.112;6.776;2024-02-16T00:50:19;13.70;99.90
19868;DHT22;10096;51.112;6.776;2024-02-16T00:52:50;13.70;99.90
19868;DHT22;10096;51.112;6.776;2024-02-16T00:55:23;13.40;99.90
19868;DHT22;10096;51.112;6.776;2024-02-16T00:57:50;13.70;99.90
19868;DHT22;10096;51.112;6.776;2024-02-16T01:00:21;13.70;99.90
19868;DHT22;10096;51.112;6.776;2024-02-16T01:02:49;13.80;99.90
19868;DHT22;10096;51.112;6.776;2024-02-16T01:05:17;13.70;99.90
19868;DHT22;10096;51.112;6.776;2024-02-16T01:07:53;13.80;99.90
19868;DHT22;10096;51.112;6.776;2024-02-16T01:10:20;13.80;99.90
19868;DHT22;10096;51.112;6.776;2024-02-16T01:12:49;13.70;99.90
19868;DHT22;10096;51.112;6.776;2024-02-16T01:15:19;13.80;99.90
19868;DHT22;10096;51.112;6.776;2024-02-16T01:17:48;13.80;99.90
19868;DHT22;10096;51.112;6.776;2024-02-16T01:20:17;14.00;99.90
19868;DHT22;10096;51.112;6.776;2024-02-16T01:22:44;13.80;99.90
19868;DHT22;10096;51.112;6.776;2024-02-16T01:25:22;13.70;99.90
19868;DHT22;10096;51.112;6.776;2024-02-16T01:28:01;13.90;99.90
19868;DHT22;10096;51.112;6.776;2024-02-16T01:30:30;13.90;99.90
19868;DHT22;10096;51.112;6.776;2024-02-16T01:33:00;13.90;99.90
19868;DHT22;10096;51.112;6.776;2024-02-16T01:35:32;14.10;99.90
19868;DHT22;10096;51.112;6.776;2024-02-16T01:38:01;14.30;99.90
19868;DHT22;10096;51.112;6.776;2024-02-16T01:40:34;13.50;99.90
19868;DHT22;10096;51.112;6.776;2024-02-16T01:43:01;14.20;99.90
19868;DHT22;10096;51.112;6.776;2024-02-16T01:45:31;13.90;99.90
19868;DHT22;10096;51.112;6.776;2024-02-16T01:48:10;14.00;99.90
19868;DHT22;10096;51.112;6.776;2024-02-16T01:50:42;13.80;99.90
19868;DHT22;10096;51.112;6.776;2024-02-16T01:53:09;13.80;99.90
19868;DHT22;10096;51.112;6.776;2024-02-16T01:55:36;13.80;99.90
19868;DHT22;10096;51.112;6.776;2024-02-16T01:58:04;13.90;99.90
19868;DHT22;10096;51.112;6.776;2024-02-16T02:00:35;13.80;99.90
19868;DHT22;10096;51.112;6.776;2024-02-16T02:03:05;13.90;99.90
19868;DHT22;10096;51.112;6.776;2024-02-16T02:05:32;13.80;99.90
19868;DHT22;10096;51.112;6.776;2024-02-16T02:08:01;13.70;99.90
19868;DHT22;10096;51.112;6.776;2024-02-16T02:10:39;13.60;99.90
19868;DHT22;10096;51.112;6.776;2024-02-16T02:13:06;13.50;99.90
19868;DHT22;10096;51.112;6.776;2024-02-16T02:15:34;13.70;99.90
19868;DHT22;10096;51.112;6.776;2024-02-16T02:18:01;13.40;99.90
19868;DHT22;10096;51.112;6.776;2024-02-16T02:20:32;13.50;99.90
19868;DHT22;10096;51.112;6.776;2024-02-16T02:23:05;13.50;99.90
19868;DHT22;10096;51.112;6.776;2024-02-16T02:25:32;13.40;99.90
19868;DHT22;10096;51.112;6.776;2024-02-16T02:28:05;13.40;99.90
19868;DHT22;10096;51.112;6.776;2024-02-16T02:30:35;13.20;99.90
19868;DHT22;10096;51.112;6.776;2024-02-16T02:33:04;13.20;99.90
19868;DHT22;10096;51.112;6.776;2024-02-16T02:35:40;13.10;99.90
19868;DHT22;10096;51.112;6.776;2024-02-16T02:38:10;13.00;99.90
19868;DHT22;10096;51.112;6.776;2024-02-16T02:40:37;13.00;99.90
19868;DHT22;10096;51.112;6.776;2024-02-16T02:43:04;13.00;99.90
19868;DHT22;10096;51.112;6.776;2024-02-16T02:45:32;12.90;99.90
19868;DHT22;10096;51.112;6.776;2024-02-16T02:48:00;12.90;99.90
19868;DHT22;10096;51.112;6.776;2024-02-16T02:50:27;12.90;99.90
19868;DHT22;10096;51.112;6.776;2024-02-16T02:52:53;12.90;99.90
19868;DHT22;10096;51.112;6.776;2024-02-16T02:55:25;12.90;99.90
19868;DHT22;10096;51.112;6.776;2024-02-16T02:57:52;12.90;99.90
19868;DHT22;10096;51.112;6.776;2024-02-16T03:00:19;13.00;99.90
19868;DHT22;10096;51.112;6.776;2024-02-16T03:02:46;13.10;99.90
19868;DHT22;10096;51.112;6.776;2024-02-16T03:05:25;13.10;99.90
19868;DHT22;10096;51.112;6.776;2024-02-16T03:07:56;13.10;99.90
19868;DHT22;10096;51.112;6.776;2024-02-16T03:10:32;13.20;99.90
19868;DHT22;10096;51.112;6.776;2024-02-16T03:13:00;13.10;99.90
19868;DHT22;10096;51.112;6.776;2024-02-16T03:15:29;13.10;99.90
19868;DHT22;10096;51.112;6.776;2024-02-16T03:17:57;13.30;99.90
19868;DHT22;10096;51.112;6.776;2024-02-16T03:20:34;13.20;99.90
19868;DHT22;10096;51.112;6.776;2024-02-16T03:23:02;13.00;99.90
19868;DHT22;10096;51.112;6.776;2024-02-16T03:25:30;13.10;99.90
19868;DHT22;10096;51.112;6.776;2024-02-16T03:27:58;13.20;99.90
19868;DHT22;10096;51.112;6.776;2024-02-16T03:30:28;13.00;99.90
19868;DHT22;10096;51.112;6.776;2024-02-16T03:32:56;13.20;99.90
19868;DHT22;10096;51.112;6.776;2024-02-16T03:35:25;13.00;99.90
19868;DHT22;10096;51.112;6.776;2024-02-16T03:37:55;13.00;99.90
19868;DHT22;10096;51.112;6.776;2024-02-16T03:40:23;12.90;99.90
19868;DHT22;10096;51.112;6.776;2024-02-16T03:42:53;12.80;99.90
19868;DHT22;10096;51.112;6.776;2024-02-16T03:45:20;13.00;99.90
19868;DHT22;10096;51.112;6.776;2024-02-16T03:47:51;13.10;99.90
19868;DHT22;10096;51.112;6.776;2024-02-16T03:50:21;12.90;99.90
19868;DHT22;10096;51.112;6.776;2024-02-16T03:52:48;12.80;99.90
19868;DHT22;10096;51.112;6.776;2024-02-16T03:55:15;13.10;99.90
19868;DHT22;10096;51.112;6.776;2024-02-16T03:57:42;12.90;99.90
19868;DHT22;10096;51.112;6.776;2024-02-16T04:00:15;12.90;99.90
19868;DHT22;10096;51.112;6.776;2024-02-16T04:02:46;13.00;99.90
19868;DHT22;10096;51.112;6.776;2024-02-16T04:05:27;13.10;99.90
19868;DHT22;10096;51.112;6.776;2024-02-16T04:08:01;13.10;99.90
19868;DHT22;10096;51.112;6.776;2024-02-16T04:10:34;13.00;99.90
19868;DHT22;10096;51.112;6.776;2024-02-16T04:13:18;13.20;99.90
19868;DHT22;10096;51.112;6.776;2024-02-16T04:16:09;13.10;99.90
19868;DHT22;10096;51.112;6.776;2024-02-16T04:19:12;13.00;99.90
19868;DHT22;10096;51.112;6.776;2024-02-16T04:21:47;13.20;99.90
19868;DHT22;10096;51.112;6.776;2024-02-16T04:24:14;13.30;99.90
19868;DHT22;10096;51.112;6.776;2024-02-16T04:26:45;13.10;99.90
19868;DHT22;10096;51.112;6.776;2024-02-16T04:29:18;13.00;99.90
19868;DHT22;10096;51.112;6.776;2024-02-16T04:34:52;13.10;99.90
19868;DHT22;10096;51.112;6.776;2024-02-16T04:37:21;13.00;99.90
19868;DHT22;10096;51.112;6.776;2024-02-16T04:39:49;13.00;99.90
19868;DHT22;10096;51.112;6.776;2024-02-16T04:42:28;13.00;99.90
19868;DHT22;10096;51.112;6.776;2024-02-16T04:45:03;13.10;99.90
19868;DHT22;10096;51.112;6.776;2024-02-16T04:47:30;13.00;99.90
19868;DHT22;10096;51.112;6.776;2024-02-16T04:50:16;13.00;99.90
19868;DHT22;10096;51.112;6.776;2024-02-16T04:52:51;12.80;99.90
19868;DHT22;10096;51.112;6.776;2024-02-16T04:55:20;13.00;99.90
19868;DHT22;10096;51.112;6.776;2024-02-16T04:57:56;12.90;99.90
19868;DHT22;10096;51.112;6.776;2024-02-16T05:00:28;12.80;99.90
19868;DHT22;10096;51.112;6.776;2024-02-16T05:02:57;12.80;99.90
19868;DHT22;10096;51.112;6.776;2024-02-16T05:05:38;12.70;99.90
19868;DHT22;10096;51.112;6.776;2024-02-16T05:08:12;12.80;99.90
19868;DHT22;10096;51.112;6.776;2024-02-16T05:10:47;13.00;99.90
19868;DHT22;10096;51.112;6.776;2024-02-16T05:13:14;12.80;99.90
19868;DHT22;10096;51.112;6.776;2024-02-16T05:15:41;13.00;99.90
19868;DHT22;10096;51.112;6.776;2024-02-16T05:18:13;12.90;99.90
19868;DHT22;10096;51.112;6.776;2024-02-16T05:20:51;13.00;99.90
19868;DHT22;10096;51.112;6.776;2024-02-16T05:23:18;13.10;99.90
19868;DHT22;10096;51.112;6.776;2024-02-16T05:25:45;12.90;99.90
19868;DHT22;10096;51.112;6.776;2024-02-16T05:28:20;12.80;99.90
19868;DHT22;10096;51.112;6.776;2024-02-16T05:30:47;12.80;99.90
19868;DHT22;10096;51.112;6.776;2024-02-16T05:33:14;12.80;99.90
19868;DHT22;10096;51.112;6.776;2024-02-16T05:35:41;12.90;99.90
19868;DHT22;10096;51.112;6.776;2024-02-16T05:38:12;13.10;99.90
19868;DHT22;10096;51.112;6.776;2024-02-16T05:40:46;12.80;99.90
19868;DHT22;10096;51.112;6.776;2024-02-16T05:43:25;12.90;99.90
19868;DHT22;10096;51.112;6.776;2024-02-16T05:46:03;12.90;99.90
19868;DHT22;10096;51.112;6.776;2024-02-16T05:48:38;12.90;99.90
19868;DHT22;10096;51.112;6.776;2024-02-16T05:51:09;12.90;99.90
19868;DHT22;10096;51.112;6.776;2024-02-16T05:53:47;12.70;99.90
19868;DHT22;10096;51.112;6.776;2024-02-16T05:56:15;12.90;99.90
19868;DHT22;10096;51.112;6.776;2024-02-16T05:58:48;12.70;99.90
19868;DHT22;10096;51.112;6.776;2024-02-16T06:01:15;12.60;99.90
19868;DHT22;10096;51.112;6.776;2024-02-16T06:03:43;12.80;99.90
19868;DHT22;10096;51.112;6.776;2024-02-16T06:06:10;12.60;99.90
19868;DHT22;10096;51.112;6.776;2024-02-16T06:08:40;12.90;99.90
19868;DHT22;10096;51.112;6.776;2024-02-16T06:11:12;12.80;99.90
19868;DHT22;10096;51.112;6.776;2024-02-16T06:13:50;13.00;99.90
19868;DHT22;10096;51.112;6.776;2024-02-16T06:16:21;12.70;99.90
19868;DHT22;10096;51.112;6.776;2024-02-16T06:18:52;12.90;99.90
19868;DHT22;10096;51.112;6.776;2024-02-16T06:21:23;13.00;99.90
19868;DHT22;10096;51.112;6.776;2024-02-16T06:23:50;12.90;99.90
19868;DHT22;10096;51.112;6.776;2024-02-16T06:26:23;12.80;99.90
19868;DHT22;10096;51.112;6.776;2024-02-16T06:28:56;12.90;99.90
19868;DHT22;10096;51.112;6.776;2024-02-16T06:31:26;12.90;99.90
19868;DHT22;10096;51.112;6.776;2024-02-16T06:33:57;12.90;99.90
19868;DHT22;10096;51.112;6.776;2024-02-16T06:36:25;12.70;99.90
19868;DHT22;10096;51.112;6.776;2024-02-16T06:38:59;12.90;99.90
19868;DHT22;10096;51.112;6.776;2024-02-16T06:41:33;12.90;99.90
19868;DHT22;10096;51.112;6.776;2024-02-16T06:44:10;13.20;99.90
19868;DHT22;10096;51.112;6.776;2024-02-16T06:46:37;12.90;99.90
19868;DHT22;10096;51.112;6.776;2024-02-16T06:49:11;13.10;99.90
19868;DHT22;10096;51.112;6.776;2024-02-16T06:51:40;13.20;99.90
19868;DHT22;10096;51.112;6.776;2024-02-16T06:54:19;13.10;99.90
19868;DHT22;10096;51.112;6.776;2024-02-16T06:57:03;13.20;99.90
19868;DHT22;10096;51.112;6.776;2024-02-16T06:59:31;13.10;99.90
19868;DHT22;10096;51.112;6.776;2024-02-16T07:02:04;13.40;99.90
19868;DHT22;10096;51.112;6.776;2024-02-16T07:04:31;13.10;99.90
19868;DHT22;10096;51.112;6.776;2024-02-16T07:06:57;13.40;99.90
19868;DHT22;10096;51.112;6.776;2024-02-16T07:09:26;13.10;99.90
19868;DHT22;10096;51.112;6.776;2024-02-16T07:11:53;13.20;99.90
19868;DHT22;10096;51.112;6.776;2024-02-16T07:14:22;13.20;99.90
19868;DHT22;10096;51.112;6.776;2024-02-16T07:16:54;13.30;99.90
19868;DHT22;10096;51.112;6.776;2024-02-16T07:19:21;13.30;99.90
19868;DHT22;10096;51.112;6.776;2024-02-16T07:21:49;13.30;99.90
19868;DHT22;10096;51.112;6.776;2024-02-16T07:24:16;13.60;99.90
19868;DHT22;10096;51.112;6.776;2024-02-16T07:26:44;13.40;99.90
19868;DHT22;10096;51.112;6.776;2024-02-16T07:29:30;13.50;99.90
19868;DHT22;10096;51.112;6.776;2024-02-16T07:31:57;13.40;99.90
19868;DHT22;10096;51.112;6.776;2024-02-16T07:34:24;13.50;99.90
19868;DHT22;10096;51.112;6.776;2024-02-16T07:37:11;13.70;99.90
19868;DHT22;10096;51.112;6.776;2024-02-16T07:39:45;13.60;99.90
19868;DHT22;10096;51.112;6.776;2024-02-16T07:42:14;13.60;99.90
19868;DHT22;10096;51.112;6.776;2024-02-16T07:44:44;13.60;99.90
19868;DHT22;10096;51.112;6.776;2024-02-16T07:47:11;13.60;99.90
19868;DHT22;10096;51.112;6.776;2024-02-16T07:49:46;13.80;99.90
19868;DHT22;10096;51.112;6.776;2024-02-16T07:52:26;13.80;99.90
19868;DHT22;10096;51.112;6.776;2024-02-16T07:54:53;13.80;99.90
19868;DHT22;10096;51.112;6.776;2024-02-16T07:57:38;13.70;99.90
19868;DHT22;10096;51.112;6.776;2024-02-16T08:00:14;14.10;99.90
19868;DHT22;10096;51.112;6.776;2024-02-16T08:02:55;13.90;99.90
19868;DHT22;10096;51.112;6.776;2024-02-16T08:05:22;14.10;99.90
19868;DHT22;10096;51.112;6.776;2024-02-16T08:07:56;13.90;99.90
19868;DHT22;10096;51.112;6.776;2024-02-16T08:10:33;14.00;99.90
19868;DHT22;10096;51.112;6.776;2024-02-16T08:13:04;14.00;99.90
19868;DHT22;10096;51.112;6.776;2024-02-16T08:15:44;14.00;99.90
19868;DHT22;10096;51.112;6.776;2024-02-16T08:18:12;14.00;99.90
19868;DHT22;10096;51.112;6.776;2024-02-16T08:20:43;14.00;99.90
19868;DHT22;10096;51.112;6.776;2024-02-16T08:23:11;14.00;99.90
19868;DHT22;10096;51.112;6.776;2024-02-16T08:25:38;14.00;99.90
19868;DHT22;10096;51.112;6.776;2024-02-16T08:28:06;14.00;99.90
19868;DHT22;10096;51.112;6.776;2024-02-16T08:30:35;14.00;99.90
19868;DHT22;10096;51.112;6.776;2024-02-16T08:33:08;14.30;99.90
19868;DHT22;10096;51.112;6.776;2024-02-16T08:35:35;14.20;99.90
19868;DHT22;10096;51.112;6.776;2024-02-16T08:38:07;14.30;99.90
19868;DHT22;10096;51.112;6.776;2024-02-16T08:40:40;14.50;99.90
19868;DHT22;10096;51.112;6.776;2024-02-16T08:43:12;14.40;99.90
19868;DHT22;10096;51.112;6.776;2024-02-16T08:45:42;14.60;99.90
19868;DHT22;10096;51.112;6.776;2024-02-16T08:48:13;14.70;99.90
19868;DHT22;10096;51.112;6.776;2024-02-16T08:50:40;14.80;99.90
19868;DHT22;10096;51.112;6.776;2024-02-16T08:53:18;15.10;99.90
19868;DHT22;10096;51.112;6.776;2024-02-16T08:55:54;14.80;99.90
19868;DHT22;10096;51.112;6.776;2024-02-16T08:58:21;14.70;99.90
19868;DHT22;10096;51.112;6.776;2024-02-16T09:00:51;14.70;99.90
19868;DHT22;10096;51.112;6.776;2024-02-16T09:03:29;14.80;99.90
19868;DHT22;10096;51.112;6.776;2024-02-16T09:06:01;14.80;99.90
19868;DHT22;10096;51.112;6.776;2024-02-16T09:08:28;14.90;99.90
19868;DHT22;10096;51.112;6.776;2024-02-16T09:10:59;14.90;99.90
19868;DHT22;10096;51.112;6.776;2024-02-16T09:13:31;14.90;99.90
19868;DHT22;10096;51.112;6.776;2024-02-16T09:15:57;15.00;99.90
19868;DHT22;10096;51.112;6.776;2024-02-16T09:18:24;15.00;99.90
19868;DHT22;10096;51.112;6.776;2024-02-16T09:20:53;15.10;99.90
19868;DHT22;10096;51.112;6.776;2024-02-16T09:23:19;14.90;99.90
19868;DHT22;10096;51.112;6.776;2024-02-16T09:25:49;15.00;99.90
19868;DHT22;10096;51.112;6.776;2024-02-16T09:28:19;15.00;99.90
19868;DHT22;10096;51.112;6.776;2024-02-16T09:30:47;15.20;99.90
19868;DHT22;10096;51.112;6.776;2024-02-16T09:33:18;15.20;99.90
19868;DHT22;10096;51.112;6.776;2024-02-16T09:35:47;15.20;99.90
19868;DHT22;10096;51.112;6.776;2024-02-16T09:38:18;15.00;99.90
19868;DHT22;10096;51.112;6.776;2024-02-16T09:40:46;15.00;99.90
19868;DHT22;10096;51.112;6.776;2024-02-16T09:43:29;15.20;99.90
19868;DHT22;10096;51.112;6.776;2024-02-16T09:45:57;15.00;99.90
19868;DHT22;10096;51.112;6.776;2024-02-16T09:48:26;15.10;99.90
19868;DHT22;10096;51.112;6.776;2024-02-16T09:51:02;14.90;99.90
19868;DHT22;10096;51.112;6.776;2024-02-16T09:53:34;15.00;99.90
19868;DHT22;10096;51.112;6.776;2024-02-16T09:56:00;15.00;99.90
19868;DHT22;10096;51.112;6.776;2024-02-16T09:58:28;15.00;99.90
19868;DHT22;10096;51.112;6.776;2024-02-16T10:00:56;15.00;99.90
19868;DHT22;10096;51.112;6.776;2024-02-16T10:03:24;15.00;99.90
19868;DHT22;10096;51.112;6.776;2024-02-16T10:05:50;15.00;99.90
19868;DHT22;10096;51.112;6.776;2024-02-16T10:08:17;15.20;99.90
19868;DHT22;10096;51.112;6.776;2024-02-16T10:10:46;15.00;99.90
19868;DHT22;10096;51.112;6.776;2024-02-16T10:13:29;15.10;99.90
19868;DHT22;10096;51.112;6.776;2024-02-16T10:16:13;15.20;99.90
19868;DHT22;10096;51.112;6.776;2024-02-16T10:18:43;15.10;99.90
19868;DHT22;10096;51.112;6.776;2024-02-16T10:21:13;15.30;99.90
19868;DHT22;10096;51.112;6.776;2024-02-16T10:23:40;15.50;99.90
19868;DHT22;10096;51.112;6.776;2024-02-16T10:26:08;15.50;99.90
19868;DHT22;10096;51.112;6.776;2024-02-16T10:28:41;15.50;99.90
19868;DHT22;10096;51.112;6.776;2024-02-16T10:31:19;15.80;99.90
19868;DHT22;10096;51.112;6.776;2024-02-16T10:33:57;15.70;99.90
19868;DHT22;10096;51.112;6.776;2024-02-16T10:36:25;15.80;99.90
19868;DHT22;10096;51.112;6.776;2024-02-16T10:38:55;15.80;99.90
19868;DHT22;10096;51.112;6.776;2024-02-16T10:41:27;15.90;99.90
19868;DHT22;10096;51.112;6.776;2024-02-16T10:43:57;16.00;99.90
19868;DHT22;10096;51.112;6.776;2024-02-16T10:46:29;15.90;99.90
19868;DHT22;10096;51.112;6.776;2024-02-16T10:48:57;16.10;99.90
19868;DHT22;10096;51.112;6.776;2024-02-16T10:51:31;16.00;99.90
19868;DHT22;10096;51.112;6.776;2024-02-16T10:54:01;16.10;99.90
19868;DHT22;10096;51.112;6.776;2024-02-16T10:56:36;16.00;99.90
19868;DHT22;10096;51.112;6.776;2024-02-16T10:59:05;16.10;99.90
19868;DHT22;10096;51.112;6.776;2024-02-16T11:01:36;15.80;99.90
19868;DHT22;10096;51.112;6.776;2024-02-16T11:04:04;15.80;99.90
19868;DHT22;10096;51.112;6.776;2024-02-16T11:06:47;15.70;99.90
19868;DHT22;10096;51.112;6.776;2024-02-16T11:09:26;15.70;99.90
19868;DHT22;10096;51.112;6.776;2024-02-16T11:12:05;15.70;99.90
19868;DHT22;10096;51.112;6.776;2024-02-16T11:14:42;15.80;99.90
19868;DHT22;10096;51.112;6.776;2024-02-16T11:17:11;15.90;99.90
19868;DHT22;10096;51.112;6.776;2024-02-16T11:19:43;15.90;99.90
19868;DHT22;10096;51.112;6.776;2024-02-16T11:22:14;15.90;99.90
19868;DHT22;10096;51.112;6.776;2024-02-16T11:24:45;15.80;99.90
19868;DHT22;10096;51.112;6.776;2024-02-16T11:27:17;15.80;99.90
19868;DHT22;10096;51.112;6.776;2024-02-16T11:29:46;15.70;99.90
19868;DHT22;10096;51.112;6.776;2024-02-16T11:32:13;15.50;99.90
19868;DHT22;10096;51.112;6.776;2024-02-16T11:34:40;15.60;99.90
19868;DHT22;10096;51.112;6.776;2024-02-16T11:37:09;15.50;99.90
19868;DHT22;10096;51.112;6.776;2024-02-16T11:39:42;15.50;99.90
19868;DHT22;10096;51.112;6.776;2024-02-16T11:42:18;15.70;99.90
19868;DHT22;10096;51.112;6.776;2024-02-16T11:44:53;15.70;99.90
19868;DHT22;10096;51.112;6.776;2024-02-16T11:47:23;15.80;99.90
19868;DHT22;10096;51.112;6.776;2024-02-16T11:50:10;15.80;99.90
19868;DHT22;10096;51.112;6.776;2024-02-16T11:52:43;15.80;99.90
19868;DHT22;10096;51.112;6.776;2024-02-16T11:55:11;16.00;99.90
19868;DHT22;10096;51.112;6.776;2024-02-16T11:57:59;15.80;99.90
19868;DHT22;10096;51.112;6.776;2024-02-16T12:00:40;15.90;99.90
19868;DHT22;10096;51.112;6.776;2024-02-16T12:03:07;16.10;99.90
19868;DHT22;10096;51.112;6.776;2024-02-16T12:05:52;15.90;99.90
19868;DHT22;10096;51.112;6.776;2024-02-16T12:08:31;16.00;99.90
19868;DHT22;10096;51.112;6.776;2024-02-16T12:11:01;16.00;99.90
19868;DHT22;10096;51.112;6.776;2024-02-16T12:13:36;15.80;99.90
19868;DHT22;10096;51.112;6.776;2024-02-16T12:16:03;16.10;99.90
19868;DHT22;10096;51.112;6.776;2024-02-16T12:18:44;15.90;99.90
19868;DHT22;10096;51.112;6.776;2024-02-16T12:21:12;16.10;99.90
19868;DHT22;10096;51.112;6.776;2024-02-16T12:23:46;15.90;99.90
19868;DHT22;10096;51.112;6.776;2024-02-16T12:26:19;15.70;99.90
19868;DHT22;10096;51.112;6.776;2024-02-16T12:28:55;15.80;99.90
19868;DHT22;10096;51.112;6.776;2024-02-16T12:31:24;15.80;99.90
19868;DHT22;10096;51.112;6.776;2024-02-16T12:33:59;15.70;99.90
19868;DHT22;10096;51.112;6.776;2024-02-16T12:36:48;15.70;99.90
19868;DHT22;10096;51.112;6.776;2024-02-16T12:39:16;15.50;99.90
19868;DHT22;10096;51.112;6.776;2024-02-16T12:41:42;15.70;99.90
19868;DHT22;10096;51.112;6.776;2024-02-16T12:44:13;15.80;99.90
19868;DHT22;10096;51.112;6.776;2024-02-16T12:46:43;15.50;99.90
19868;DHT22;10096;51.112;6.776;2024-02-16T12:49:12;15.50;99.90
19868;DHT22;10096;51.112;6.776;2024-02-16T12:51:40;15.40;99.90
19868;DHT22;10096;51.112;6.776;2024-02-16T12:54:10;15.30;99.90
19868;DHT22;10096;51.112;6.776;2024-02-16T12:56:42;15.40;99.90
19868;DHT22;10096;51.112;6.776;2024-02-16T12:59:17;15.60;99.90
19868;DHT22;10096;51.112;6.776;2024-02-16T13:01:45;15.40;99.90
19868;DHT22;10096;51.112;6.776;2024-02-16T13:04:14;15.40;99.90
19868;DHT22;10096;51.112;6.776;2024-02-16T13:06:52;15.30;99.90
19868;DHT22;10096;51.112;6.776;2024-02-16T13:09:20;15.40;99.90
19868;DHT22;10096;51.112;6.776;2024-02-16T13:11:47;15.40;99.90
19868;DHT22;10096;51.112;6.776;2024-02-16T13:14:21;15.30;99.90
19868;DHT22;10096;51.112;6.776;2024-02-16T13:16:48;15.30;99.90
19868;DHT22;10096;51.112;6.776;2024-02-16T13:19:15;15.30;99.90
19868;DHT22;10096;51.112;6.776;2024-02-16T13:21:43;15.30;99.90
19868;DHT22;10096;51.112;6.776;2024-02-16T13:24:16;15.50;99.90
19868;DHT22;10096;51.112;6.776;2024-02-16T13:26:46;15.30;99.90
19868;DHT22;10096;51.112;6.776;2024-02-16T13:29:14;15.30;99.90
19868;DHT22;10096;51.112;6.776;2024-02-16T13:31:43;15.20;99.90
19868;DHT22;10096;51.112;6.776;2024-02-16T13:34:15;15.20;99.90
19868;DHT22;10096;51.112;6.776;2024-02-16T13:36:43;15.20;99.90
19868;DHT22;10096;51.112;6.776;2024-02-16T13:39:14;15.30;99.90
19868;DHT22;10096;51.112;6.776;2024-02-16T13:41:45;15.30;99.90
19868;DHT22;10096;51.112;6.776;2024-02-16T13:44:23;15.20;99.90
19868;DHT22;10096;51.112;6.776;2024-02-16T13:47:03;15.30;99.90
19868;DHT22;10096;51.112;6.776;2024-02-16T13:49:32;15.20;99.90
19868;DHT22;10096;51.112;6.776;2024-02-16T13:52:00;15.40;99.90
19868;DHT22;10096;51.112;6.776;2024-02-16T13:54:28;15.70;99.90
19868;DHT22;10096;51.112;6.776;2024-02-16T13:56:55;15.50;99.90
19868;DHT22;10096;51.112;6.776;2024-02-16T13:59:22;15.80;99.90
19868;DHT22;10096;51.112;6.776;2024-02-16T14:01:49;15.70;99.90
19868;DHT22;10096;51.112;6.776;2024-02-16T14:04:24;15.70;99.90
19868;DHT22;10096;51.112;6.776;2024-02-16T14:06:54;15.60;99.90
19868;DHT22;10096;51.112;6.776;2024-02-16T14:09:31;15.70;99.90
19868;DHT22;10096;51.112;6.776;2024-02-16T14:11:58;15.70;1.00
19868;DHT22;10096;51.112;6.776;2024-02-16T14:14:25;15.40;1.00
19868;DHT22;10096;51.112;6.776;2024-02-16T14:16:53;15.30;1.00
19868;DHT22;10096;51.112;6.776;2024-02-16T14:19:28;15.40;1.00
19868;DHT22;10096;51.112;6.776;2024-02-16T14:21:55;15.20;1.00
19868;DHT22;10096;51.112;6.776;2024-02-16T14:25:02;15.10;1.00
19868;DHT22;10096;51.112;6.776;2024-02-16T14:27:38;15.10;1.00
19868;DHT22;10096;51.112;6.776;2024-02-16T14:30:07;15.00;1.00
19868;DHT22;10096;51.112;6.776;2024-02-16T14:32:38;14.90;1.00
19868;DHT22;10096;51.112;6.776;2024-02-16T14:35:10;14.90;38.60
19868;DHT22;10096;51.112;6.776;2024-02-16T14:37:38;15.00;57.90
19868;DHT22;10096;51.112;6.776;2024-02-16T14:40:12;15.00;99.90
19868;DHT22;10096;51.112;6.776;2024-02-16T14:42:47;14.80;99.90
19868;DHT22;10096;51.112;6.776;2024-02-16T14:45:37;14.80;99.90
19868;DHT22;10096;51.112;6.776;2024-02-16T14:48:05;14.80;99.90
19868;DHT22;10096;51.112;6.776;2024-02-16T14:50:38;14.70;99.90
19868;DHT22;10096;51.112;6.776;2024-02-16T14:53:06;14.90;99.90
19868;DHT22;10096;51.112;6.776;2024-02-16T14:55:33;14.70;99.90
19868;DHT22;10096;51.112;6.776;2024-02-16T14:58:00;14.70;99.90
19868;DHT22;10096;51.112;6.776;2024-02-16T15:00:38;14.90;99.90
19868;DHT22;10096;51.112;6.776;2024-02-16T15:03:46;15.00;99.90
19868;DHT22;10096;51.112;6.776;2024-02-16T15:06:22;14.80;1.00
19868;DHT22;10096;51.112;6.776;2024-02-16T15:08:50;14.70;99.90
19868;DHT22;10096;51.112;6.776;2024-02-16T15:11:22;14.90;1.00
19868;DHT22;10096;51.112;6.776;2024-02-16T15:13:49;14.70;1.00
19868;DHT22;10096;51.112;6.776;2024-02-16T15:16:16;14.70;1.00
19868;DHT22;10096;51.112;6.776;2024-02-16T15:18:43;14.70;1.00
19868;DHT22;10096;51.112;6.776;2024-02-16T15:21:11;14.70;1.00
19868;DHT22;10096;51.112;6.776;2024-02-16T15:23:41;14.60;1.00
19868;DHT22;10096;51.112;6.776;2024-02-16T15:26:10;14.60;1.00
19868;DHT22;10096;51.112;6.776;2024-02-16T15:28:39;14.60;1.00
19868;DHT22;10096;51.112;6.776;2024-02-16T15:31:09;14.60;1.00
19868;DHT22;10096;51.112;6.776;2024-02-16T15:33:35;14.60;1.00
19868;DHT22;10096;51.112;6.776;2024-02-16T15:36:03;14.60;1.00
19868;DHT22;10096;51.112;6.776;2024-02-16T15:38:36;14.80;1.00
19868;DHT22;10096;51.112;6.776;2024-02-16T15:44:39;14.60;1.00
19868;DHT22;10096;51.112;6.776;2024-02-16T15:47:17;14.60;1.00
19868;DHT22;10096;51.112;6.776;2024-02-16T15:49:44;14.30;1.00
19868;DHT22;10096;51.112;6.776;2024-02-16T15:52:16;14.20;1.00
19868;DHT22;10096;51.112;6.776;2024-02-16T15:54:43;14.10;1.00
19868;DHT22;10096;51.112;6.776;2024-02-16T15:57:10;14.10;1.00
19868;DHT22;10096;51.112;6.776;2024-02-16T15:59:41;14.10;1.00
19868;DHT22;10096;51.112;6.776;2024-02-16T16:02:08;14.20;1.00
19868;DHT22;10096;51.112;6.776;2024-02-16T16:04:40;14.30;1.00